Time;durP1;ratioP1;P1;durP2;ratioP2;P2;SDS_P1;SDS_P2;PMS_P1;PMS_P2;Temp;Humidity;BMP_temperature;BMP_pressure;BME280_temperature;BME280_humidity;BME280_pressure;Samples;Min_cycle;Max_cycle;Signal;HPM_P1;HPM_P2
2022/11/07 00:00:05;;;;;;;8.20;4.47;;;;;;;;;;4995509;28;93568;-81
2022/11/07 00:02:36;;;;;;;9.20;4.18;;;;;;;;;;4988224;28;95122;-80
2022/11/07 00:05:03;;;;;;;11.55;4.78;;;;;;;;;;4993255;28;92874;-81
2022/11/07 00:07:29;;;;;;;13.27;4.68;;;;;;;;;;4998246;28;94178;-80
2022/11/07 00:09:57;;;;;;;6.60;4.10;;;;;;;;;;4998511;28;94207;-81
2022/11/07 00:12:23;;;;;;;8.00;4.20;;;;;;;;;;4998007;28;92435;-80
2022/11/07 00:14:50;;;;;;;12.73;4.03;;;;;;;;;;4998554;28;93263;-80
2022/11/07 00:17:17;;;;;;;7.22;3.65;;;;;;;;;;5000647;28;93143;-80
2022/11/07 00:19:43;;;;;;;7.32;3.70;;;;;;;;;;4998164;28;94050;-81
2022/11/07 00:22:10;;;;;;;7.07;3.72;;;;;;;;;;4997858;28;94145;-81
2022/11/07 00:24:36;;;;;;;12.23;4.00;;;;;;;;;;4993329;28;92472;-81
2022/11/07 00:27:02;;;;;;;10.23;4.13;;;;;;;;;;4976019;28;95168;-80
2022/11/07 00:29:29;;;;;;;13.85;4.80;;;;;;;;;;4978163;28;93226;-80
2022/11/07 00:31:55;;;;;;;10.88;3.80;;;;;;;;;;4978429;28;92476;-81
2022/11/07 00:34:21;;;;;;;9.20;4.38;;;;;;;;;;4977860;28;94290;-81
2022/11/07 00:36:48;;;;;;;12.55;3.90;;;;;;;;;;4977549;28;94106;-80
2022/11/07 00:39:14;;;;;;;17.70;4.13;;;;;;;;;;4979701;28;92894;-80
2022/11/07 00:41:40;;;;;;;12.98;4.20;;;;;;;;;;4989812;28;94081;-80
2022/11/07 00:44:07;;;;;;;8.43;3.40;;;;;;;;;;4998660;28;91656;-80
2022/11/07 00:46:33;;;;;;;8.00;4.32;;;;;;;;;;4996764;28;92461;-81
2022/11/07 00:49:00;;;;;;;7.90;3.50;;;;;;;;;;4997425;28;94398;-80
2022/11/07 00:51:27;;;;;;;8.00;3.75;;;;;;;;;;4996053;28;94913;-81
2022/11/07 00:53:53;;;;;;;12.48;4.07;;;;;;;;;;4998404;28;96241;-80
2022/11/07 00:56:21;;;;;;;6.43;3.85;;;;;;;;;;5012443;28;93460;-80
2022/11/07 00:58:47;;;;;;;7.63;3.45;;;;;;;;;;5002616;28;93067;-80
2022/11/07 01:01:18;;;;;;;15.20;3.97;;;;;;;;;;4997101;28;93307;-80
2022/11/07 01:06:32;;;;;;;8.90;3.97;;;;;;;;;;4997451;28;94418;-80
2022/11/07 01:08:59;;;;;;;8.63;3.83;;;;;;;;;;4996556;28;92867;-81
2022/11/07 01:11:26;;;;;;;8.57;3.67;;;;;;;;;;4998268;28;92454;-81
2022/11/07 01:13:57;;;;;;;12.65;3.92;;;;;;;;;;4998223;28;94116;-81
2022/11/07 01:16:23;;;;;;;13.98;4.20;;;;;;;;;;4994150;28;96609;-81
2022/11/07 01:18:50;;;;;;;13.55;3.88;;;;;;;;;;4997569;28;92442;-81
2022/11/07 01:21:16;;;;;;;6.13;3.72;;;;;;;;;;4999558;28;94155;-81
2022/11/07 01:23:42;;;;;;;10.13;3.72;;;;;;;;;;4987418;28;92481;-81
2022/11/07 01:26:10;;;;;;;13.50;4.65;;;;;;;;;;4994816;28;94167;-81
2022/11/07 01:28:37;;;;;;;16.20;4.25;;;;;;;;;;4995936;28;94501;-81
2022/11/07 01:31:05;;;;;;;9.60;4.05;;;;;;;;;;4997151;28;92742;-81
2022/11/07 01:33:31;;;;;;;7.88;3.53;;;;;;;;;;4996757;28;93074;-81
2022/11/07 01:36:01;;;;;;;9.35;3.92;;;;;;;;;;4996124;28;94380;-81
2022/11/07 01:38:31;;;;;;;14.45;4.28;;;;;;;;;;4996919;28;92496;-81
2022/11/07 01:43:48;;;;;;;14.48;3.70;;;;;;;;;;4998768;28;94071;-81
2022/11/07 01:46:14;;;;;;;11.73;3.47;;;;;;;;;;4997409;28;93884;-81
2022/11/07 01:48:43;;;;;;;18.55;3.75;;;;;;;;;;4995293;28;93155;-81
2022/11/07 01:51:12;;;;;;;12.38;3.63;;;;;;;;;;4978089;28;92520;-82
2022/11/07 01:53:39;;;;;;;20.10;4.18;;;;;;;;;;4994997;28;94003;-81
2022/11/07 01:56:08;;;;;;;10.93;3.78;;;;;;;;;;4997032;28;94151;-81
2022/11/07 01:58:35;;;;;;;16.50;3.75;;;;;;;;;;4996712;28;91670;-81
2022/11/07 02:01:01;;;;;;;12.82;2.80;;;;;;;;;;4996994;28;93183;-80
2022/11/07 02:03:27;;;;;;;8.05;3.45;;;;;;;;;;4993956;28;94795;-79
2022/11/07 02:05:56;;;;;;;17.33;3.42;;;;;;;;;;4997808;28;94820;-80
2022/11/07 02:08:23;;;;;;;13.55;3.35;;;;;;;;;;4995803;28;94071;-80
2022/11/07 02:10:50;;;;;;;11.02;3.42;;;;;;;;;;4978023;28;92705;-80
2022/11/07 02:13:20;;;;;;;10.93;3.30;;;;;;;;;;4996731;28;93982;-80
2022/11/07 02:15:47;;;;;;;15.40;4.28;;;;;;;;;;4996067;28;92339;-80
2022/11/07 02:18:13;;;;;;;14.73;3.70;;;;;;;;;;4996033;28;92513;-80
2022/11/07 02:20:39;;;;;;;20.13;3.70;;;;;;;;;;4995634;28;93127;-79
2022/11/07 02:23:10;;;;;;;8.93;4.13;;;;;;;;;;4995674;28;93137;-82
2022/11/07 02:25:37;;;;;;;8.73;3.40;;;;;;;;;;4982398;28;92437;-80
2022/11/07 02:28:05;;;;;;;17.50;4.55;;;;;;;;;;4979457;28;94633;-82
2022/11/07 02:30:33;;;;;;;10.65;3.35;;;;;;;;;;4974178;28;94946;-79
2022/11/07 02:33:00;;;;;;;15.80;3.45;;;;;;;;;;4974419;28;95713;-80
2022/11/07 02:35:37;;;;;;;17.10;4.22;;;;;;;;;;4976033;28;93355;-80
2022/11/07 02:38:15;;;;;;;12.43;3.28;;;;;;;;;;4976037;28;92460;-80
2022/11/07 02:40:43;;;;;;;14.13;3.67;;;;;;;;;;4987997;28;93897;-80
2022/11/07 02:43:10;;;;;;;14.20;3.20;;;;;;;;;;4996204;28;94144;-81
2022/11/07 02:45:42;;;;;;;17.02;4.78;;;;;;;;;;4995033;28;92430;-82
2022/11/07 02:48:08;;;;;;;9.13;3.92;;;;;;;;;;4999687;28;94092;-81
2022/11/07 02:50:34;;;;;;;11.48;3.78;;;;;;;;;;4995629;28;92503;-81
2022/11/07 02:53:02;;;;;;;10.15;3.45;;;;;;;;;;4995254;28;94110;-81
2022/11/07 02:55:28;;;;;;;15.13;3.63;;;;;;;;;;4994190;28;96509;-81
2022/11/07 02:57:55;;;;;;;12.75;3.75;;;;;;;;;;4995430;28;93092;-81
2022/11/07 03:00:21;;;;;;;9.43;3.63;;;;;;;;;;4995190;28;92780;-81
2022/11/07 03:02:47;;;;;;;14.13;4.13;;;;;;;;;;4995727;28;94389;-81
2022/11/07 03:05:18;;;;;;;14.82;4.18;;;;;;;;;;4995708;28;93286;-81
2022/11/07 03:07:45;;;;;;;13.63;3.83;;;;;;;;;;4995246;28;93973;-82
2022/11/07 03:10:12;;;;;;;11.20;4.03;;;;;;;;;;4998620;28;92413;-82
2022/11/07 03:12:39;;;;;;;11.75;4.18;;;;;;;;;;4996120;28;94035;-82
2022/11/07 03:15:06;;;;;;;14.48;4.05;;;;;;;;;;4994253;28;94300;-82
2022/11/07 03:17:32;;;;;;;10.20;3.85;;;;;;;;;;4994692;28;92573;-81
2022/11/07 03:19:59;;;;;;;15.38;4.93;;;;;;;;;;4994043;28;95249;-82
2022/11/07 03:22:25;;;;;;;9.88;3.97;;;;;;;;;;4994944;28;94665;-81
2022/11/07 03:24:51;;;;;;;11.40;4.07;;;;;;;;;;4989172;28;92508;-81
2022/11/07 03:27:19;;;;;;;10.27;3.75;;;;;;;;;;4975942;28;94056;-81
2022/11/07 03:29:45;;;;;;;12.23;4.15;;;;;;;;;;4975314;28;93625;-80
2022/11/07 03:32:12;;;;;;;12.50;3.95;;;;;;;;;;4994860;28;92528;-80
2022/11/07 03:34:39;;;;;;;10.15;3.97;;;;;;;;;;4995043;28;94114;-79
2022/11/07 03:37:05;;;;;;;13.18;4.20;;;;;;;;;;4995312;28;92113;-80
2022/11/07 03:39:32;;;;;;;19.08;5.32;;;;;;;;;;4994952;28;93126;-80
2022/11/07 03:42:00;;;;;;;6.95;3.60;;;;;;;;;;4998066;28;94219;-80
2022/11/07 03:44:26;;;;;;;18.42;4.90;;;;;;;;;;4980024;28;94900;-80
2022/11/07 03:46:53;;;;;;;14.85;4.43;;;;;;;;;;4999602;28;95960;-80
2022/11/07 03:49:19;;;;;;;17.00;3.90;;;;;;;;;;4998580;28;94247;-79
2022/11/07 03:51:45;;;;;;;15.55;4.80;;;;;;;;;;4999745;28;92469;-80
2022/11/07 03:54:12;;;;;;;13.50;4.78;;;;;;;;;;4984289;28;92914;-80
2022/11/07 03:56:38;;;;;;;18.17;4.18;;;;;;;;;;4997722;28;93125;-81
2022/11/07 03:59:07;;;;;;;15.45;3.80;;;;;;;;;;4998596;28;92840;-79
2022/11/07 04:01:33;;;;;;;16.20;3.85;;;;;;;;;;4999197;28;93606;-81
2022/11/07 04:04:00;;;;;;;11.20;4.10;;;;;;;;;;4997494;28;92981;-81
2022/11/07 04:06:26;;;;;;;12.55;3.35;;;;;;;;;;4997903;28;94025;-81
2022/11/07 04:08:52;;;;;;;13.05;4.00;;;;;;;;;;4996709;28;96923;-81
2022/11/07 04:19:36;;;;;;;15.50;3.55;;;;;;;;;;4979546;28;92841;-81
2022/11/07 04:22:04;;;;;;;13.23;3.53;;;;;;;;;;4997977;28;94397;-81
2022/11/07 04:24:31;;;;;;;16.85;3.28;;;;;;;;;;4994085;28;92470;-81
2022/11/07 04:29:42;;;;;;;17.98;3.90;;;;;;;;;;4977661;28;93433;-81
2022/11/07 04:32:08;;;;;;;9.05;3.20;;;;;;;;;;4977967;28;92882;-81
2022/11/07 04:34:35;;;;;;;15.55;3.53;;;;;;;;;;4979021;28;95556;-80
2022/11/07 04:37:01;;;;;;;10.82;3.70;;;;;;;;;;4997827;28;94468;-80
2022/11/07 04:39:27;;;;;;;16.67;4.30;;;;;;;;;;5000358;28;92448;-80
2022/11/07 04:41:55;;;;;;;12.43;4.13;;;;;;;;;;4997380;28;94667;-80
2022/11/07 04:44:21;;;;;;;12.10;4.60;;;;;;;;;;4996173;28;92864;-80
2022/11/07 04:46:48;;;;;;;16.40;4.40;;;;;;;;;;4997459;28;94021;-80
2022/11/07 04:49:14;;;;;;;21.58;5.65;;;;;;;;;;4997355;28;94289;-80
2022/11/07 04:51:41;;;;;;;14.73;3.88;;;;;;;;;;4996941;28;91680;-80
2022/11/07 04:54:12;;;;;;;21.88;3.85;;;;;;;;;;4997068;28;93218;-80
2022/11/07 04:56:39;;;;;;;24.60;4.70;;;;;;;;;;4996481;28;93439;-79
2022/11/07 04:59:05;;;;;;;23.50;4.90;;;;;;;;;;4981717;28;94938;-80
2022/11/07 05:01:33;;;;;;;16.33;4.28;;;;;;;;;;4996744;28;93618;-80
2022/11/07 05:03:59;;;;;;;15.63;4.22;;;;;;;;;;4997951;28;92446;-80
2022/11/07 05:06:26;;;;;;;13.98;3.65;;;;;;;;;;4999108;28;93980;-79
2022/11/07 05:08:54;;;;;;;16.15;4.68;;;;;;;;;;5005682;28;94145;-79
2022/11/07 05:11:20;;;;;;;23.83;4.55;;;;;;;;;;5000696;28;92454;-80
2022/11/07 05:13:51;;;;;;;10.90;3.78;;;;;;;;;;4996280;28;94170;-79
2022/11/07 05:16:20;;;;;;;17.25;4.00;;;;;;;;;;4997048;28;91602;-79
2022/11/07 05:18:47;;;;;;;14.02;3.65;;;;;;;;;;4996486;28;92580;-79
2022/11/07 05:21:14;;;;;;;18.67;3.65;;;;;;;;;;4998370;28;93759;-80
2022/11/07 05:23:41;;;;;;;12.50;3.97;;;;;;;;;;4975855;28;94913;-79
2022/11/07 05:26:08;;;;;;;11.82;3.38;;;;;;;;;;4993796;28;95683;-80
2022/11/07 05:28:37;;;;;;;20.48;4.25;;;;;;;;;;4996324;28;94841;-80
2022/11/07 05:31:06;;;;;;;16.08;3.33;;;;;;;;;;4997210;28;92456;-79
2022/11/07 05:33:34;;;;;;;15.88;4.53;;;;;;;;;;4996415;28;93855;-80
2022/11/07 05:36:07;;;;;;;21.33;4.43;;;;;;;;;;4996258;28;93442;-79
2022/11/07 05:38:33;;;;;;;21.23;5.38;;;;;;;;;;4996484;28;92970;-79
2022/11/07 05:41:03;;;;;;;22.05;4.63;;;;;;;;;;4996837;28;93959;-79
2022/11/07 05:43:29;;;;;;;22.63;4.63;;;;;;;;;;4998826;28;93066;-80
2022/11/07 05:45:59;;;;;;;20.30;5.22;;;;;;;;;;4996717;28;94214;-80
2022/11/07 05:48:25;;;;;;;16.95;4.15;;;;;;;;;;4993588;28;97327;-80
2022/11/07 05:50:52;;;;;;;25.23;4.68;;;;;;;;;;4996887;28;92537;-80
2022/11/07 05:53:20;;;;;;;20.02;4.97;;;;;;;;;;4996652;28;94262;-79
2022/11/07 05:55:46;;;;;;;22.67;5.65;;;;;;;;;;4996112;28;94566;-79
2022/11/07 05:58:15;;;;;;;21.02;4.88;;;;;;;;;;4996156;28;92486;-79
2022/11/07 06:00:41;;;;;;;17.13;5.22;;;;;;;;;;4997135;28;94109;-79
2022/11/07 06:03:08;;;;;;;17.40;4.30;;;;;;;;;;4995698;28;94941;-80
2022/11/07 06:05:38;;;;;;;24.13;5.18;;;;;;;;;;4999472;28;91594;-79
2022/11/07 06:08:06;;;;;;;14.65;3.72;;;;;;;;;;4997366;28;94209;-80
2022/11/07 06:10:32;;;;;;;22.23;4.60;;;;;;;;;;4996844;28;92544;-80
2022/11/07 06:12:59;;;;;;;15.70;4.53;;;;;;;;;;4995689;28;95218;-79
2022/11/07 06:15:28;;;;;;;14.55;4.13;;;;;;;;;;4997236;28;94450;-80
2022/11/07 06:17:57;;;;;;;28.17;5.07;;;;;;;;;;4995787;28;93116;-79
2022/11/07 06:20:23;;;;;;;18.65;4.50;;;;;;;;;;4995789;28;94140;-79
2022/11/07 06:22:50;;;;;;;18.65;3.75;;;;;;;;;;4996343;28;94527;-80
2022/11/07 06:25:16;;;;;;;20.60;4.50;;;;;;;;;;4995622;28;92418;-80
2022/11/07 06:27:42;;;;;;;16.80;4.13;;;;;;;;;;4999664;28;94162;-80
2022/11/07 06:30:09;;;;;;;18.58;4.30;;;;;;;;;;4996852;28;91663;-80
2022/11/07 06:32:35;;;;;;;18.73;4.07;;;;;;;;;;4990248;28;93470;-81
2022/11/07 06:35:01;;;;;;;19.33;4.10;;;;;;;;;;4995005;28;93422;-81
2022/11/07 06:37:28;;;;;;;14.90;3.58;;;;;;;;;;4975689;28;94867;-81
2022/11/07 06:39:54;;;;;;;17.58;4.00;;;;;;;;;;4976336;28;96365;-81
2022/11/07 06:42:23;;;;;;;22.05;3.42;;;;;;;;;;4976037;28;94146;-81
2022/11/07 06:44:50;;;;;;;17.38;4.50;;;;;;;;;;4975981;28;92411;-80
2022/11/07 06:47:16;;;;;;;18.88;4.78;;;;;;;;;;4990307;28;93136;-81
2022/11/07 06:49:42;;;;;;;24.40;4.78;;;;;;;;;;4998940;28;93068;-81
2022/11/07 06:52:09;;;;;;;18.48;4.57;;;;;;;;;;4996331;28;94334;-81
2022/11/07 06:54:36;;;;;;;23.55;4.78;;;;;;;;;;4995801;28;93457;-81
2022/11/07 06:57:02;;;;;;;23.02;4.50;;;;;;;;;;4997194;28;92484;-81
2022/11/07 06:59:29;;;;;;;22.90;4.28;;;;;;;;;;4995060;28;94019;-80
2022/11/07 07:01:55;;;;;;;17.15;4.15;;;;;;;;;;4989514;28;95542;-81
2022/11/07 07:04:21;;;;;;;17.83;3.95;;;;;;;;;;4996540;28;92747;-80
2022/11/07 07:06:48;;;;;;;25.65;4.43;;;;;;;;;;4991425;28;94484;-80
2022/11/07 07:09:14;;;;;;;20.27;3.70;;;;;;;;;;4998561;28;94191;-80
2022/11/07 07:11:43;;;;;;;11.30;4.35;;;;;;;;;;4991723;28;94284;-80
2022/11/07 07:14:10;;;;;;;16.85;4.10;;;;;;;;;;4995431;28;94353;-80
2022/11/07 07:16:37;;;;;;;21.55;4.18;;;;;;;;;;4997286;28;92955;-79
2022/11/07 07:19:03;;;;;;;12.45;3.58;;;;;;;;;;4987894;28;92950;-79
2022/11/07 07:21:30;;;;;;;18.08;4.72;;;;;;;;;;4997809;28;93278;-78
2022/11/07 07:23:58;;;;;;;21.17;4.10;;;;;;;;;;4999861;28;92443;-77
2022/11/07 07:26:24;;;;;;;17.05;4.20;;;;;;;;;;4995807;28;94846;-80
2022/11/07 07:28:50;;;;;;;12.10;3.95;;;;;;;;;;4995025;28;94205;-74
2022/11/07 07:31:22;;;;;;;12.95;3.03;;;;;;;;;;5000214;28;92516;-78
2022/11/07 07:33:48;;;;;;;17.02;4.18;;;;;;;;;;4999245;28;94155;-78
2022/11/07 07:36:16;;;;;;;19.40;4.13;;;;;;;;;;4998339;28;93035;-77
2022/11/07 07:38:46;;;;;;;18.25;3.95;;;;;;;;;;4998910;28;93903;-77
2022/11/07 07:41:12;;;;;;;11.85;3.42;;;;;;;;;;4997590;28;94275;-77
2022/11/07 07:43:39;;;;;;;13.82;3.53;;;;;;;;;;4980855;28;91758;-77
2022/11/07 07:46:06;;;;;;;22.90;3.92;;;;;;;;;;4998439;28;92621;-77
2022/11/07 07:48:33;;;;;;;13.63;3.78;;;;;;;;;;4997029;28;93480;-77
2022/11/07 07:50:59;;;;;;;13.07;4.57;;;;;;;;;;4997307;28;94864;-76
2022/11/07 07:53:27;;;;;;;11.30;3.30;;;;;;;;;;4981522;28;96247;-77
2022/11/07 07:55:56;;;;;;;18.88;4.20;;;;;;;;;;4998564;28;92685;-77
2022/11/07 07:58:24;;;;;;;12.85;3.70;;;;;;;;;;4999357;28;93904;-76
2022/11/07 08:00:57;;;;;;;9.52;4.15;;;;;;;;;;4997895;28;93380;-77
2022/11/07 08:03:23;;;;;;;16.88;3.60;;;;;;;;;;4993878;28;92480;-76
2022/11/07 08:05:54;;;;;;;15.15;3.38;;;;;;;;;;4997141;28;92406;-76
2022/11/07 08:08:20;;;;;;;15.18;3.00;;;;;;;;;;4978261;28;92556;-77
2022/11/07 08:10:52;;;;;;;15.35;3.85;;;;;;;;;;4978251;28;92586;-77
2022/11/07 08:13:20;;;;;;;10.55;3.53;;;;;;;;;;4978989;28;94036;-76
2022/11/07 08:15:46;;;;;;;18.55;3.78;;;;;;;;;;4979187;28;95699;-76
2022/11/07 08:18:12;;;;;;;16.80;3.95;;;;;;;;;;4990361;28;96621;-76
2022/11/07 08:20:39;;;;;;;16.05;3.60;;;;;;;;;;4997688;28;93050;-75
2022/11/07 08:23:06;;;;;;;14.25;3.80;;;;;;;;;;4997923;28;92442;-77
2022/11/07 08:25:42;;;;;;;14.95;4.15;;;;;;;;;;4998033;28;93855;-78
2022/11/07 08:28:08;;;;;;;13.18;3.53;;;;;;;;;;4997729;28;94307;-78
2022/11/07 08:30:35;;;;;;;16.75;4.10;;;;;;;;;;4996661;28;92408;-76
2022/11/07 08:33:02;;;;;;;17.42;3.65;;;;;;;;;;4981375;28;93925;-78
2022/11/07 08:35:32;;;;;;;16.90;3.88;;;;;;;;;;4997978;28;94193;-77
2022/11/07 08:38:05;;;;;;;15.98;4.30;;;;;;;;;;5000010;28;94541;-77
2022/11/07 08:40:31;;;;;;;14.20;3.85;;;;;;;;;;4995499;28;95817;-76
2022/11/07 08:42:59;;;;;;;13.90;3.53;;;;;;;;;;4998273;28;92445;-76
2022/11/07 08:45:25;;;;;;;14.52;3.75;;;;;;;;;;4996433;28;93130;-76
2022/11/07 08:47:55;;;;;;;14.82;3.58;;;;;;;;;;4998082;28;94513;-76
2022/11/07 08:50:21;;;;;;;15.52;3.42;;;;;;;;;;4979287;28;92615;-76
2022/11/07 08:52:48;;;;;;;13.45;3.38;;;;;;;;;;4996899;28;94043;-77
2022/11/07 08:55:14;;;;;;;17.77;3.80;;;;;;;;;;4997690;28;94430;-77
2022/11/07 08:57:40;;;;;;;15.23;4.07;;;;;;;;;;4998357;28;91636;-77
2022/11/07 09:00:07;;;;;;;14.38;3.33;;;;;;;;;;5000345;28;93335;-77
2022/11/07 09:02:35;;;;;;;13.55;3.08;;;;;;;;;;4996196;28;96190;-76
2022/11/07 09:05:21;;;;;;;16.33;3.70;;;;;;;;;;4995476;28;94862;-78
2022/11/07 09:07:49;;;;;;;15.10;3.58;;;;;;;;;;4998216;28;94375;-77
2022/11/07 09:10:15;;;;;;;13.80;3.58;;;;;;;;;;4998258;28;92433;-77
2022/11/07 09:12:45;;;;;;;16.55;4.25;;;;;;;;;;4996315;28;93161;-77
2022/11/07 09:15:12;;;;;;;13.15;3.72;;;;;;;;;;4997160;28;94092;-75
2022/11/07 09:17:38;;;;;;;12.57;3.45;;;;;;;;;;4987891;28;93794;-76
2022/11/07 09:20:05;;;;;;;14.60;3.63;;;;;;;;;;4980068;28;93966;-76
2022/11/07 09:22:31;;;;;;;16.50;3.55;;;;;;;;;;4977646;28;91693;-76
2022/11/07 09:24:57;;;;;;;18.20;3.83;;;;;;;;;;4977316;28;92427;-76
2022/11/07 09:27:24;;;;;;;14.02;3.95;;;;;;;;;;4976271;28;94352;-76
2022/11/07 09:29:50;;;;;;;18.23;3.70;;;;;;;;;;4975827;28;95120;-76
2022/11/07 09:32:16;;;;;;;15.57;3.90;;;;;;;;;;4977476;28;96252;-76
2022/11/07 09:35:03;;;;;;;15.05;3.30;;;;;;;;;;4976719;28;92391;-76
2022/11/07 09:37:30;;;;;;;8.77;2.80;;;;;;;;;;4993169;28;92433;-77
2022/11/07 09:39:56;;;;;;;13.40;3.65;;;;;;;;;;4996407;28;95050;-76
2022/11/07 09:42:48;;;;;;;13.23;2.95;;;;;;;;;;4999173;28;93259;-76
2022/11/07 09:45:14;;;;;;;15.63;3.78;;;;;;;;;;4997509;28;93908;-76
2022/11/07 09:47:46;;;;;;;15.85;3.58;;;;;;;;;;4996198;28;93393;-76
2022/11/07 09:50:13;;;;;;;;;;;;;;;;;;4998164;28;92603;-77
2022/11/07 09:52:48;;;;;;;15.60;4.22;;;;;;;;;;4997272;28;123059;-76
2022/11/07 09:55:17;;;;;;;20.10;3.75;;;;;;;;;;4994499;28;96880;-77
2022/11/07 09:57:44;;;;;;;21.10;3.55;;;;;;;;;;4997241;28;92336;-76
2022/11/07 10:00:20;;;;;;;39.67;4.32;;;;;;;;;;4997205;28;94091;-76
2022/11/07 10:02:48;;;;;;;16.83;4.00;;;;;;;;;;4996350;28;93120;-76
2022/11/07 10:05:17;;;;;;;15.20;3.45;;;;;;;;;;4995687;28;92633;-76
2022/11/07 10:08:02;;;;;;;15.73;4.35;;;;;;;;;;4975496;28;93486;-76
2022/11/07 10:10:30;;;;;;;16.38;3.55;;;;;;;;;;4991885;28;92760;-76
2022/11/07 10:13:05;;;;;;;14.60;3.65;;;;;;;;;;4994986;28;93147;-76
2022/11/07 10:15:52;;;;;;;14.02;3.65;;;;;;;;;;4995333;28;95070;-76
2022/11/07 10:18:35;;;;;;;14.70;4.00;;;;;;;;;;4995343;28;92485;-76
2022/11/07 10:21:20;;;;;;;14.93;3.78;;;;;;;;;;4994583;28;95319;-76
2022/11/07 10:24:22;;;;;;;12.83;3.37;;;;;;;;;;4995746;28;93800;-76
2022/11/07 10:26:48;;;;;;;15.35;3.75;;;;;;;;;;4995507;28;92478;-75
2022/11/07 10:29:16;;;;;;;13.57;3.83;;;;;;;;;;4999411;28;93750;-76
2022/11/07 10:31:45;;;;;;;12.77;3.25;;;;;;;;;;4995426;28;92470;-78
2022/11/07 10:34:16;;;;;;;20.85;3.53;;;;;;;;;;4995931;28;92379;-75
2022/11/07 10:36:43;;;;;;;17.20;3.63;;;;;;;;;;4995526;28;95510;-75
2022/11/07 10:39:13;;;;;;;14.63;4.15;;;;;;;;;;4995716;28;92197;-78
2022/11/07 10:41:40;;;;;;;12.63;3.13;;;;;;;;;;4996187;28;93056;-76
2022/11/07 10:44:12;;;;;;;16.13;3.45;;;;;;;;;;4995590;28;94235;-76
2022/11/07 10:46:38;;;;;;;18.67;4.00;;;;;;;;;;4994008;28;94857;-76
2022/11/07 10:49:17;;;;;;;17.00;3.60;;;;;;;;;;4995651;28;96216;-77
2022/11/07 10:51:46;;;;;;;12.50;3.25;;;;;;;;;;4997883;28;94295;-77
2022/11/07 10:54:33;;;;;;;8.95;4.05;;;;;;;;;;4996242;28;92838;-76
2022/11/07 10:57:08;;;;;;;10.35;3.42;;;;;;;;;;4991923;28;94281;-76
2022/11/07 10:59:36;;;;;;;13.65;3.40;;;;;;;;;;4993978;28;92315;-76
2022/11/07 11:02:12;;;;;;;18.35;3.92;;;;;;;;;;4996370;28;94061;-76
2022/11/07 11:04:45;;;;;;;24.67;4.32;;;;;;;;;;4996054;28;92625;-76
2022/11/07 11:07:16;;;;;;;14.75;3.33;;;;;;;;;;4993586;28;92888;-76
2022/11/07 11:09:53;;;;;;;12.63;3.67;;;;;;;;;;4995333;28;94003;-77
2022/11/07 11:12:22;;;;;;;17.60;4.43;;;;;;;;;;4993093;28;96814;-76
2022/11/07 11:14:49;;;;;;;15.10;3.28;;;;;;;;;;4998976;28;92386;-78
2022/11/07 11:17:23;;;;;;;17.90;3.38;;;;;;;;;;4995370;28;94448;-77
2022/11/07 11:19:51;;;;;;;15.43;3.53;;;;;;;;;;4995246;28;92819;-76
2022/11/07 11:22:20;;;;;;;17.38;3.63;;;;;;;;;;4995592;28;94271;-75
2022/11/07 11:24:56;;;;;;;13.25;4.50;;;;;;;;;;4995486;28;93219;-78
2022/11/07 11:27:24;;;;;;;26.33;4.05;;;;;;;;;;4994262;28;92438;-75
2022/11/07 11:30:00;;;;;;;15.73;4.32;;;;;;;;;;4996376;28;93820;-78
2022/11/07 11:32:30;;;;;;;14.52;3.33;;;;;;;;;;4993514;28;94227;-78
2022/11/07 11:35:15;;;;;;;15.82;3.72;;;;;;;;;;4997487;28;92517;-76
2022/11/07 11:37:42;;;;;;;13.88;3.63;;;;;;;;;;4992645;28;95799;-78
2022/11/07 11:40:15;;;;;;;16.88;3.70;;;;;;;;;;4994236;28;92481;-78
2022/11/07 11:43:10;;;;;;;13.55;3.53;;;;;;;;;;4994468;28;93017;-78
2022/11/07 11:45:55;;;;;;;11.40;3.63;;;;;;;;;;4973707;28;93416;-76
2022/11/07 11:48:25;;;;;;;19.50;4.38;;;;;;;;;;4994700;28;92709;-76
2022/11/07 11:50:53;;;;;;;13.55;4.07;;;;;;;;;;4995839;28;94358;-76
2022/11/07 11:53:21;;;;;;;16.15;3.70;;;;;;;;;;4994820;28;93806;-76
2022/11/07 11:56:10;;;;;;;19.90;4.30;;;;;;;;;;4995577;28;91580;-77
2022/11/07 11:58:55;;;;;;;10.98;3.65;;;;;;;;;;4951786;28;93734;-78
2022/11/07 12:01:25;;;;;;;20.95;4.38;;;;;;;;;;4995792;28;92554;-77
2022/11/07 12:04:14;;;;;;;18.98;4.10;;;;;;;;;;4996688;28;94748;-76
2022/11/07 12:06:44;;;;;;;18.05;3.80;;;;;;;;;;4998325;28;94129;-76
2022/11/07 12:09:15;;;;;;;16.58;3.92;;;;;;;;;;4997164;28;92573;-77
2022/11/07 12:12:02;;;;;;;21.08;4.28;;;;;;;;;;4998915;28;94213;-76
2022/11/07 12:14:35;;;;;;;17.88;4.22;;;;;;;;;;4998040;28;94000;-77
2022/11/07 12:17:02;;;;;;;14.32;3.60;;;;;;;;;;4997723;28;92449;-77
2022/11/07 12:19:58;;;;;;;13.48;3.97;;;;;;;;;;4998669;28;92789;-75
2022/11/07 12:22:37;;;;;;;17.83;3.53;;;;;;;;;;4962187;28;94981;-75
2022/11/07 12:25:21;;;;;;;16.48;3.50;;;;;;;;;;5005177;28;92731;-77
2022/11/07 12:27:52;;;;;;;18.15;3.58;;;;;;;;;;5000939;28;92500;-75
2022/11/07 12:30:32;;;;;;;23.98;4.55;;;;;;;;;;4996146;28;95031;-76
2022/11/07 12:33:04;;;;;;;22.30;4.78;;;;;;;;;;4978344;28;95557;-75
2022/11/07 12:35:42;;;;;;;12.43;3.72;;;;;;;;;;4984459;28;93978;-80
2022/11/07 12:38:28;;;;;;;16.00;3.63;;;;;;;;;;4997834;28;93042;-76
2022/11/07 12:41:00;;;;;;;15.90;3.20;;;;;;;;;;4998360;28;93997;-76
2022/11/07 12:43:39;;;;;;;19.33;3.60;;;;;;;;;;4997249;28;94451;-77
2022/11/07 12:46:13;;;;;;;25.30;4.65;;;;;;;;;;5001233;28;92451;-78
2022/11/07 12:48:51;;;;;;;13.35;3.50;;;;;;;;;;4998401;28;93888;-77
2022/11/07 12:51:26;;;;;;;19.23;3.95;;;;;;;;;;4997914;28;92422;-78
2022/11/07 12:53:55;;;;;;;12.43;3.58;;;;;;;;;;4998756;28;94052;-76
2022/11/07 12:56:31;;;;;;;14.68;2.97;;;;;;;;;;4996157;28;96522;-76
2022/11/07 12:58:59;;;;;;;18.02;3.80;;;;;;;;;;4997452;28;92468;-76
2022/11/07 13:01:32;;;;;;;17.17;3.55;;;;;;;;;;4997920;28;93060;-78
2022/11/07 13:04:25;;;;;;;19.13;3.70;;;;;;;;;;4998905;28;93868;-77
2022/11/07 13:06:53;;;;;;;15.60;3.38;;;;;;;;;;4994015;28;92894;-77
2022/11/07 13:09:27;;;;;;;14.20;3.80;;;;;;;;;;5000984;28;92951;-76
2022/11/07 13:12:07;;;;;;;14.75;3.55;;;;;;;;;;4997149;28;92420;-76
2022/11/07 13:14:38;;;;;;;19.23;4.75;;;;;;;;;;4998111;28;94034;-76
2022/11/07 13:17:18;;;;;;;16.05;3.13;;;;;;;;;;4997696;28;95549;-76
2022/11/07 13:19:58;;;;;;;15.88;3.38;;;;;;;;;;4979065;28;92458;-76
2022/11/07 13:22:32;;;;;;;17.23;3.88;;;;;;;;;;4996122;28;94686;-76
2022/11/07 13:25:11;;;;;;;12.23;3.65;;;;;;;;;;4997407;28;94093;-76
2022/11/07 13:27:59;;;;;;;18.95;4.60;;;;;;;;;;4997240;28;92398;-77
2022/11/07 13:30:26;;;;;;;;;;;;;;;;;;5000711;28;93915;-76
2022/11/07 13:32:52;;;;;;;22.27;4.93;;;;;;;;;;4997083;28;118327;-77
2022/11/07 13:35:21;;;;;;;11.15;3.97;;;;;;;;;;4996742;28;94417;-77
2022/11/07 13:38:11;;;;;;;15.30;3.70;;;;;;;;;;4997337;28;94114;-77
2022/11/07 13:40:40;;;;;;;13.90;3.72;;;;;;;;;;4988354;28;92375;-77
2022/11/07 13:43:13;;;;;;;17.50;4.03;;;;;;;;;;4997403;28;93256;-77
2022/11/07 13:45:44;;;;;;;17.58;4.03;;;;;;;;;;4996660;28;93227;-77
2022/11/07 13:48:31;;;;;;;11.88;3.35;;;;;;;;;;4994457;28;94847;-77
2022/11/07 13:51:02;;;;;;;16.73;4.00;;;;;;;;;;4979403;28;96498;-76
2022/11/07 13:53:47;;;;;;;18.67;3.50;;;;;;;;;;4995845;28;94196;-77
2022/11/07 13:56:38;;;;;;;18.80;3.90;;;;;;;;;;4994566;28;93174;-76
2022/11/07 13:59:09;;;;;;;12.85;3.90;;;;;;;;;;4996520;28;94754;-77
2022/11/07 14:01:39;;;;;;;12.05;2.90;;;;;;;;;;4995324;28;92565;-76
2022/11/07 14:04:13;;;;;;;20.30;3.03;;;;;;;;;;4996820;28;94016;-77
2022/11/07 14:06:39;;;;;;;20.45;4.00;;;;;;;;;;4976901;28;92669;-77
2022/11/07 14:09:06;;;;;;;16.35;3.03;;;;;;;;;;4984918;28;92946;-77
2022/11/07 14:11:33;;;;;;;14.68;2.85;;;;;;;;;;4996523;28;94025;-77
2022/11/07 14:13:59;;;;;;;19.85;3.22;;;;;;;;;;4993452;28;96800;-76
2022/11/07 14:16:26;;;;;;;22.35;4.15;;;;;;;;;;4997892;28;92752;-76
2022/11/07 14:18:55;;;;;;;14.80;2.88;;;;;;;;;;4995747;28;94163;-77
2022/11/07 14:21:24;;;;;;;8.82;3.00;;;;;;;;;;4976397;28;92529;-77
2022/11/07 14:23:50;;;;;;;12.48;3.33;;;;;;;;;;4983396;28;93846;-79
2022/11/07 14:26:19;;;;;;;9.98;2.75;;;;;;;;;;4993785;28;94176;-77
2022/11/07 14:28:46;;;;;;;13.93;3.17;;;;;;;;;;4989482;28;92517;-76
2022/11/07 14:31:17;;;;;;;15.10;3.35;;;;;;;;;;4994925;28;93949;-78
2022/11/07 14:33:48;;;;;;;13.43;3.33;;;;;;;;;;4994960;28;93111;-78
2022/11/07 14:36:16;;;;;;;19.08;3.30;;;;;;;;;;4992350;28;92958;-78
2022/11/07 14:38:46;;;;;;;17.05;3.42;;;;;;;;;;4996221;28;96382;-78
2022/11/07 14:41:13;;;;;;;15.32;3.40;;;;;;;;;;4994877;28;93327;-78
2022/11/07 14:43:40;;;;;;;17.63;3.53;;;;;;;;;;4994356;28;95093;-77
2022/11/07 14:46:11;;;;;;;16.08;3.15;;;;;;;;;;4992121;28;93319;-78
2022/11/07 14:48:40;;;;;;;11.95;2.90;;;;;;;;;;4994874;28;92451;-77
2022/11/07 14:51:11;;;;;;;16.67;3.78;;;;;;;;;;4976973;28;93300;-78
2022/11/07 14:53:41;;;;;;;15.85;3.78;;;;;;;;;;4994840;28;94241;-77
2022/11/07 14:56:11;;;;;;;25.88;4.28;;;;;;;;;;4991295;28;92415;-77
2022/11/07 14:58:37;;;;;;;15.52;3.25;;;;;;;;;;4994001;28;92503;-78
2022/11/07 15:01:06;;;;;;;15.52;4.50;;;;;;;;;;4992043;28;93985;-76